createdAt,value
2019-02-21T00:01:23.660Z,6.63
2019-02-21T00:03:49.651Z,7.27
2019-02-21T00:06:15.622Z,7.10
2019-02-21T00:08:41.655Z,7.10
2019-02-21T00:11:07.631Z,6.70
2019-02-21T00:13:33.632Z,6.30
2019-02-21T00:16:00.355Z,5.80
2019-02-21T00:18:27.103Z,6.27
2019-02-21T00:20:53.818Z,6.67
2019-02-21T00:23:19.786Z,6.93
2019-02-21T00:25:45.764Z,6.40
2019-02-21T00:28:11.886Z,6.53
2019-02-21T00:30:38.241Z,6.97
2019-02-21T00:33:04.219Z,6.90
2019-02-21T00:35:30.189Z,6.87
2019-02-21T00:37:56.161Z,6.97
2019-02-21T00:40:22.144Z,6.27
2019-02-21T00:42:48.836Z,7.17
2019-02-21T00:45:14.838Z,6.87
2019-02-21T00:47:40.802Z,6.13
2019-02-21T00:50:06.800Z,7.37
2019-02-21T00:52:32.789Z,7.10
2019-02-21T00:54:58.761Z,7.30
2019-02-21T00:57:24.712Z,6.50
2019-02-21T00:59:50.984Z,6.50
2019-02-21T01:02:17.456Z,6.97
2019-02-21T01:04:43.425Z,6.57
2019-02-21T01:07:09.440Z,7.17
2019-02-21T01:09:35.407Z,7.27
2019-02-21T01:12:01.393Z,6.97
2019-02-21T01:14:28.088Z,7.10
2019-02-21T01:16:54.070Z,6.90
2019-02-21T01:19:20.018Z,7.10
2019-02-21T01:21:45.987Z,7.47
2019-02-21T01:24:12.659Z,7.97
2019-02-21T01:26:38.637Z,7.43
2019-02-21T01:29:04.728Z,7.43
2019-02-21T01:31:30.919Z,6.47
2019-02-21T01:33:56.867Z,7.40
2019-02-21T01:36:22.832Z,7.17
2019-02-21T01:38:48.776Z,7.10
2019-02-21T01:41:15.471Z,7.53
2019-02-21T01:43:41.437Z,7.17
2019-02-21T01:46:07.427Z,7.70
2019-02-21T01:48:33.391Z,7.60
2019-02-21T01:50:59.349Z,7.43
2019-02-21T01:53:25.340Z,6.87
2019-02-21T01:55:51.308Z,6.47
2019-02-21T01:58:17.302Z,7.33
2019-02-21T02:00:43.279Z,7.00
2019-02-21T02:03:10.019Z,7.63
2019-02-21T02:05:35.973Z,8.00
2019-02-21T02:08:01.958Z,7.20
2019-02-21T02:10:27.928Z,7.60
2019-02-21T02:12:53.904Z,7.53
2019-02-21T02:15:19.889Z,7.60
2019-02-21T02:17:45.877Z,6.43
2019-02-21T02:20:12.573Z,7.43
2019-02-21T02:22:38.554Z,8.33
2019-02-21T02:25:04.495Z,7.73
2019-02-21T02:27:30.470Z,7.80
2019-02-21T02:29:57.193Z,8.27
2019-02-21T02:32:23.149Z,8.30
2019-02-21T02:34:49.131Z,8.67
2019-02-21T02:37:15.094Z,8.20
2019-02-21T02:39:41.827Z,7.93
2019-02-21T02:42:07.786Z,8.30
2019-02-21T02:44:33.769Z,9.10
2019-02-21T02:47:00.463Z,8.87
2019-02-21T02:49:26.437Z,8.67
2019-02-21T02:51:52.427Z,8.60
2019-02-21T02:54:18.402Z,8.43
2019-02-21T02:56:44.360Z,8.90
2019-02-21T02:59:10.350Z,8.43
2019-02-21T03:01:36.354Z,9.70
2019-02-21T03:04:02.375Z,8.43
2019-02-21T03:06:28.373Z,9.63
2019-02-21T03:08:54.331Z,9.47
2019-02-21T03:11:20.308Z,8.67
2019-02-21T03:13:46.253Z,8.70
2019-02-21T03:16:12.981Z,10.07
2019-02-21T03:18:38.930Z,9.00
2019-02-21T03:21:05.642Z,9.97
2019-02-21T03:23:31.605Z,9.73
2019-02-21T03:25:57.589Z,9.97
2019-02-21T03:28:23.536Z,8.50
2019-02-21T03:30:50.253Z,10.10
2019-02-21T03:33:16.940Z,9.03
2019-02-21T03:35:42.917Z,9.77
2019-02-21T03:38:08.880Z,9.33
2019-02-21T03:40:34.893Z,9.57
2019-02-21T03:43:00.852Z,9.57
2019-02-21T03:45:26.830Z,9.87
2019-02-21T03:47:52.816Z,10.37
2019-02-21T03:50:18.774Z,9.47
2019-02-21T03:52:45.486Z,10.63
2019-02-21T03:55:12.217Z,10.10
2019-02-21T03:57:38.204Z,9.60
2019-02-21T04:00:04.204Z,10.00
2019-02-21T04:02:30.910Z,8.50
2019-02-21T04:04:56.928Z,9.30
2019-02-21T04:07:22.897Z,9.57
2019-02-21T04:09:48.862Z,9.67
2019-02-21T04:12:14.871Z,9.67
2019-02-21T04:14:40.867Z,9.57
2019-02-21T04:17:06.852Z,9.90
2019-02-21T04:19:33.567Z,9.77
2019-02-21T04:21:59.566Z,10.10
2019-02-21T04:24:25.630Z,9.67
2019-02-21T04:26:51.556Z,10.03
2019-02-21T04:29:17.515Z,10.50
2019-02-21T04:31:44.239Z,9.60
2019-02-21T04:34:10.948Z,9.87
2019-02-21T04:36:36.899Z,9.33
2019-02-21T04:39:03.627Z,9.27
2019-02-21T04:41:29.578Z,10.20
2019-02-21T04:43:56.294Z,9.83
2019-02-21T04:46:23.008Z,9.63
2019-02-21T04:48:48.990Z,10.97
2019-02-21T04:51:15.014Z,11.03
2019-02-21T04:53:41.006Z,8.97
2019-02-21T04:56:07.016Z,10.63
2019-02-21T04:58:33.004Z,11.53
2019-02-21T05:00:59.002Z,10.60
2019-02-21T05:03:25.679Z,10.53
2019-02-21T05:05:51.666Z,10.77
2019-02-21T05:08:17.630Z,10.10
2019-02-21T05:10:44.476Z,9.87
2019-02-21T05:13:10.424Z,10.40
2019-02-21T05:15:37.183Z,10.50
2019-02-21T05:18:03.880Z,10.40
2019-02-21T05:20:29.858Z,11.10
2019-02-21T05:22:55.799Z,9.70
2019-02-21T05:25:21.771Z,9.37
2019-02-21T05:27:47.755Z,10.47
2019-02-21T05:30:14.033Z,10.57
2019-02-21T05:32:41.254Z,11.17
2019-02-21T05:35:05.837Z,9.63
2019-02-21T05:37:31.813Z,10.40
2019-02-21T05:39:57.810Z,10.40
2019-02-21T05:42:24.542Z,11.07
2019-02-21T05:44:50.519Z,10.50
2019-02-21T05:47:16.505Z,10.77
2019-02-21T05:49:42.493Z,10.67
2019-02-21T05:52:08.491Z,10.63
2019-02-21T05:54:34.453Z,9.93
2019-02-21T05:57:00.430Z,10.17
2019-02-21T05:59:26.438Z,10.97
2019-02-21T06:01:52.561Z,8.73
2019-02-21T06:04:19.484Z,10.67
2019-02-21T06:06:44.582Z,11.20
2019-02-21T06:09:10.537Z,10.67
2019-02-21T06:11:36.544Z,10.63
2019-02-21T06:14:03.258Z,9.33
2019-02-21T06:16:32.568Z,10.93
2019-02-21T06:18:56.007Z,10.40
2019-02-21T06:21:21.972Z,10.67
2019-02-21T06:23:49.369Z,11.67
2019-02-21T06:26:14.720Z,10.93
2019-02-21T06:28:40.708Z,11.13
2019-02-21T06:31:06.666Z,10.80
2019-02-21T06:33:32.635Z,10.70
2019-02-21T06:35:58.608Z,10.43
2019-02-21T06:38:24.605Z,10.03
2019-02-21T06:40:50.596Z,10.87
2019-02-21T06:43:16.607Z,11.13
2019-02-21T06:45:43.311Z,10.37
2019-02-21T06:48:09.327Z,10.37
2019-02-21T06:50:35.299Z,10.70
2019-02-21T06:53:01.319Z,12.47
2019-02-21T06:55:27.321Z,10.10
2019-02-21T06:57:54.021Z,11.53
2019-02-21T07:00:20.038Z,12.13
2019-02-21T07:02:46.020Z,11.50
2019-02-21T07:05:13.328Z,11.40
2019-02-21T07:07:39.292Z,11.47
2019-02-21T07:10:06.019Z,11.53
2019-02-21T07:12:31.987Z,11.60
2019-02-21T07:14:57.986Z,11.67
2019-02-21T07:17:23.960Z,10.53
2019-02-21T07:19:49.958Z,12.33
2019-02-21T07:22:17.958Z,10.97
2019-02-21T07:24:41.985Z,10.40
2019-02-21T07:27:07.965Z,11.60
2019-02-21T07:29:33.960Z,11.20
2019-02-21T07:31:59.929Z,10.80
2019-02-21T07:34:25.907Z,11.03
2019-02-21T07:36:51.855Z,11.07
2019-02-21T07:39:20.700Z,10.97
2019-02-21T07:41:43.930Z,11.03
2019-02-21T07:44:12.303Z,10.13
2019-02-21T07:46:37.475Z,11.00
2019-02-21T07:49:03.460Z,11.03
2019-02-21T07:51:29.451Z,10.57
2019-02-21T07:53:56.147Z,10.33
2019-02-21T07:56:22.145Z,10.87
2019-02-21T07:58:48.123Z,10.40
2019-02-21T08:01:14.137Z,10.17
2019-02-21T08:03:44.221Z,9.87
2019-02-21T08:06:06.174Z,10.20
2019-02-21T08:08:32.572Z,9.57
2019-02-21T08:10:58.186Z,10.43
2019-02-21T08:13:24.159Z,10.10
2019-02-21T08:15:50.168Z,10.17
2019-02-21T08:18:16.132Z,9.87
2019-02-21T08:20:42.831Z,9.07
2019-02-21T08:23:10.956Z,10.10
2019-02-21T08:25:34.844Z,9.27
2019-02-21T08:28:00.852Z,8.90
2019-02-21T08:30:28.990Z,9.87
2019-02-21T08:32:52.889Z,9.70
2019-02-21T08:35:18.868Z,7.87
2019-02-21T08:37:44.863Z,9.13
2019-02-21T08:40:10.823Z,10.03
2019-02-21T08:42:36.824Z,9.33
2019-02-21T08:45:02.771Z,9.13
2019-02-21T08:47:28.782Z,9.73
2019-02-21T08:49:54.761Z,9.03
2019-02-21T08:52:21.500Z,8.73
2019-02-21T08:54:48.203Z,9.50
2019-02-21T08:57:14.185Z,8.80
2019-02-21T08:59:42.284Z,9.93
2019-02-21T09:02:06.207Z,9.30
2019-02-21T09:04:32.200Z,9.90
2019-02-21T09:06:58.177Z,9.10
2019-02-21T09:09:24.958Z,9.13
2019-02-21T09:11:50.905Z,9.03
2019-02-21T09:14:17.639Z,8.60
2019-02-21T09:16:43.607Z,10.13
2019-02-21T09:19:09.602Z,8.77
2019-02-21T09:21:35.574Z,9.73
2019-02-21T09:24:01.572Z,9.67
2019-02-21T09:26:27.534Z,10.10
2019-02-21T09:28:53.547Z,9.40
2019-02-21T09:31:19.513Z,9.67
2019-02-21T09:33:46.236Z,9.70
2019-02-21T09:36:12.207Z,9.17
2019-02-21T09:38:38.178Z,10.10
2019-02-21T09:41:04.183Z,9.83
2019-02-21T09:43:30.152Z,9.00
2019-02-21T09:45:56.873Z,9.33
2019-02-21T09:48:23.586Z,9.63
2019-02-21T09:50:49.601Z,9.27
2019-02-21T09:53:15.566Z,9.67
2019-02-21T09:55:41.612Z,9.70
2019-02-21T09:58:07.594Z,10.13
2019-02-21T10:00:35.880Z,9.23
2019-02-21T10:02:59.622Z,9.87
2019-02-21T10:05:25.623Z,9.47
2019-02-21T10:07:51.593Z,9.93
2019-02-21T10:10:17.588Z,9.90
2019-02-21T10:12:43.550Z,10.27
2019-02-21T10:15:10.304Z,8.67
2019-02-21T10:17:36.288Z,9.17
2019-02-21T10:20:04.107Z,8.83
2019-02-21T10:22:28.278Z,8.60
2019-02-21T10:24:56.856Z,9.80
2019-02-21T10:27:20.290Z,9.83
2019-02-21T10:29:46.268Z,10.60
2019-02-21T10:32:12.267Z,9.93
2019-02-21T10:34:43.046Z,11.00
2019-02-21T10:37:04.990Z,9.63
2019-02-21T10:39:30.931Z,9.83
2019-02-21T10:41:57.657Z,10.37
2019-02-21T10:44:24.408Z,10.37
2019-02-21T10:46:50.378Z,10.63
2019-02-21T10:49:16.354Z,10.87
2019-02-21T10:51:43.095Z,10.37
2019-02-21T10:54:09.818Z,10.33
2019-02-21T10:56:35.813Z,10.37
2019-02-21T10:59:01.921Z,10.87
2019-02-21T11:01:27.800Z,11.03
2019-02-21T11:03:54.544Z,10.93
2019-02-21T11:06:20.503Z,10.10
2019-02-21T11:08:46.493Z,11.27
2019-02-21T11:11:12.437Z,11.10
2019-02-21T11:13:38.425Z,10.73
2019-02-21T11:16:04.383Z,11.33
2019-02-21T11:18:30.375Z,10.60
2019-02-21T11:20:56.338Z,10.73
2019-02-21T11:23:22.355Z,10.83
2019-02-21T11:25:48.348Z,10.50
2019-02-21T11:28:14.363Z,11.20
2019-02-21T11:30:40.332Z,11.43
2019-02-21T11:33:06.332Z,10.80
2019-02-21T11:35:33.061Z,11.20
2019-02-21T11:37:59.091Z,11.13
2019-02-21T11:40:25.807Z,10.67
2019-02-21T11:42:51.765Z,11.37
2019-02-21T11:45:17.782Z,11.33
2019-02-21T11:47:44.506Z,10.40
2019-02-21T11:50:11.265Z,11.47
2019-02-21T11:52:37.984Z,10.50
2019-02-21T11:55:03.974Z,11.50
2019-02-21T11:57:29.962Z,11.17
2019-02-21T11:59:55.948Z,11.33
2019-02-21T12:02:21.931Z,10.53
2019-02-21T12:04:47.924Z,9.90
2019-02-21T12:07:14.630Z,9.20
2019-02-21T12:09:40.630Z,10.97
2019-02-21T12:12:06.611Z,10.27
2019-02-21T12:14:33.351Z,10.00
2019-02-21T12:17:00.057Z,9.83
2019-02-21T12:19:26.055Z,11.57
2019-02-21T12:21:59.066Z,10.60
2019-02-21T12:24:18.024Z,10.77
2019-02-21T12:26:44.013Z,10.20
2019-02-21T12:29:09.957Z,11.07
2019-02-21T12:31:35.934Z,10.27
2019-02-21T12:34:01.926Z,10.30
2019-02-21T12:36:27.913Z,10.60
2019-02-21T12:38:53.878Z,10.67
2019-02-21T12:41:19.863Z,10.23
2019-02-21T12:43:45.851Z,10.50
2019-02-21T12:46:11.833Z,11.37
2019-02-21T12:48:37.802Z,11.77
2019-02-21T12:51:03.812Z,11.00
2019-02-21T12:53:30.524Z,11.97
2019-02-21T12:55:56.525Z,10.87
2019-02-21T12:58:22.514Z,11.70
2019-02-21T13:00:48.516Z,10.73
2019-02-21T13:03:15.249Z,11.30
2019-02-21T13:05:44.460Z,11.43
2019-02-21T13:08:08.007Z,10.47
2019-02-21T13:10:35.073Z,12.07
2019-02-21T13:13:00.807Z,11.27
2019-02-21T13:15:26.773Z,11.77
2019-02-21T13:17:52.784Z,11.47
2019-02-21T13:20:18.773Z,11.43
2019-02-21T13:22:44.765Z,12.20
2019-02-21T13:25:11.491Z,12.20
2019-02-21T13:27:37.554Z,11.93
2019-02-21T13:30:04.235Z,11.20
2019-02-21T13:32:30.236Z,12.30
2019-02-21T13:34:56.253Z,10.90
2019-02-21T13:37:28.918Z,11.63
2019-02-21T13:39:48.269Z,11.67
2019-02-21T13:42:14.996Z,10.17
2019-02-21T13:44:41.727Z,9.77
2019-02-21T13:47:07.696Z,10.03
2019-02-21T13:49:33.700Z,10.63
2019-02-21T13:52:00.402Z,9.73
2019-02-21T13:54:26.392Z,10.07
2019-02-21T13:56:52.345Z,9.67
2019-02-21T13:59:18.332Z,9.87
2019-02-21T14:01:44.334Z,10.37
2019-02-21T14:04:11.062Z,9.50
2019-02-21T14:06:37.031Z,9.83
2019-02-21T14:09:03.019Z,9.03
2019-02-21T14:11:30.808Z,9.00
2019-02-21T14:13:55.010Z,9.80
2019-02-21T14:16:21.768Z,8.90
2019-02-21T14:18:47.738Z,8.70
2019-02-21T14:21:13.783Z,8.27
2019-02-21T14:23:39.769Z,8.27
2019-02-21T14:26:06.504Z,9.07
2019-02-21T14:28:32.518Z,7.90
2019-02-21T14:30:58.511Z,8.77
2019-02-21T14:33:24.466Z,7.57
2019-02-21T14:35:50.460Z,8.67
2019-02-21T14:38:26.995Z,8.23
2019-02-21T14:40:42.480Z,9.07
2019-02-21T14:43:08.433Z,8.40
2019-02-21T14:45:34.448Z,7.63
2019-02-21T14:48:00.461Z,8.50
2019-02-21T14:50:26.463Z,7.60
2019-02-21T14:52:52.454Z,8.17
2019-02-21T14:55:19.235Z,8.07
2019-02-21T14:57:45.242Z,8.67
2019-02-21T15:00:11.987Z,7.67
2019-02-21T15:02:37.946Z,8.23
2019-02-21T15:05:03.945Z,7.97
2019-02-21T15:07:29.946Z,8.17
2019-02-21T15:09:56.654Z,7.97
2019-02-21T15:12:22.651Z,8.23
2019-02-21T15:14:48.651Z,8.53
2019-02-21T15:17:14.623Z,7.57
2019-02-21T15:19:40.603Z,8.07
2019-02-21T15:22:06.576Z,8.10
2019-02-21T15:24:32.525Z,7.30
2019-02-21T15:27:08.077Z,8.70
2019-02-21T15:29:32.174Z,8.70
2019-02-21T15:31:58.181Z,8.10
2019-02-21T15:34:24.158Z,7.80
2019-02-21T15:36:50.154Z,8.10
2019-02-21T15:39:16.156Z,8.00
2019-02-21T15:41:42.148Z,7.80
2019-02-21T15:44:08.850Z,8.47
2019-02-21T15:46:34.859Z,8.20
2019-02-21T15:49:00.812Z,8.63
2019-02-21T15:51:26.833Z,8.13
2019-02-21T15:53:52.813Z,7.47
2019-02-21T15:56:18.763Z,8.07
2019-02-21T15:58:44.737Z,7.53
2019-02-21T16:01:14.017Z,7.93
2019-02-21T16:03:37.514Z,7.40
2019-02-21T16:06:04.199Z,8.00
2019-02-21T16:08:30.179Z,7.40
2019-02-21T16:10:56.140Z,7.30
2019-02-21T16:13:22.739Z,7.50
2019-02-21T16:15:48.192Z,8.67
2019-02-21T16:18:14.207Z,8.47
2019-02-21T16:20:40.195Z,7.47
2019-02-21T16:23:06.231Z,8.33
2019-02-21T16:25:32.199Z,7.60
2019-02-21T16:27:58.219Z,7.07
2019-02-21T16:30:24.201Z,7.90
2019-02-21T16:32:50.180Z,7.47
2019-02-21T16:35:17.057Z,7.50
2019-02-21T16:37:42.922Z,7.23
2019-02-21T16:40:08.910Z,8.60
2019-02-21T16:42:34.874Z,7.97
2019-02-21T16:45:00.901Z,8.37
2019-02-21T16:47:26.851Z,7.20
2019-02-21T16:49:52.852Z,8.77
2019-02-21T16:52:18.803Z,8.13
2019-02-21T16:54:45.546Z,7.43
2019-02-21T16:57:12.255Z,9.07
2019-02-21T16:59:38.221Z,7.93
2019-02-21T17:02:04.182Z,7.77
2019-02-21T17:04:30.189Z,8.40
2019-02-21T17:06:56.139Z,7.67
2019-02-21T17:09:22.095Z,8.37
2019-02-21T17:11:48.823Z,8.33
2019-02-21T17:14:14.778Z,7.87
2019-02-21T17:16:40.766Z,8.07
2019-02-21T17:19:06.720Z,8.47
2019-02-21T17:21:32.704Z,7.93
2019-02-21T17:23:58.651Z,8.57
2019-02-21T17:26:24.633Z,8.53
2019-02-21T17:28:50.580Z,7.80
2019-02-21T17:31:17.316Z,7.53
2019-02-21T17:33:44.031Z,8.50
2019-02-21T17:36:10.018Z,8.57
2019-02-21T17:38:35.994Z,7.83
2019-02-21T17:41:02.754Z,8.40
2019-02-21T17:43:29.465Z,8.90
2019-02-21T17:45:55.445Z,7.83
2019-02-21T17:48:21.406Z,8.87
2019-02-21T17:50:47.391Z,8.50
2019-02-21T17:53:13.354Z,8.10
2019-02-21T17:55:39.353Z,8.43
2019-02-21T17:58:05.329Z,8.37
2019-02-21T18:00:32.040Z,8.47
2019-02-21T18:02:58.019Z,8.53
2019-02-21T18:05:23.977Z,9.43
2019-02-21T18:07:49.960Z,8.43
2019-02-21T18:10:15.923Z,9.33
2019-02-21T18:12:41.916Z,9.10
2019-02-21T18:15:07.863Z,8.83
2019-02-21T18:17:33.868Z,9.47
2019-02-21T18:19:59.879Z,8.77
2019-02-21T18:22:26.722Z,8.50
2019-02-21T18:24:52.751Z,8.80
2019-02-21T18:27:18.759Z,9.03
2019-02-21T18:29:44.742Z,9.30
2019-02-21T18:32:10.747Z,8.63
2019-02-21T18:34:36.797Z,9.13
2019-02-21T18:37:02.856Z,8.23
2019-02-21T18:39:28.874Z,9.47
2019-02-21T18:41:54.873Z,9.07
2019-02-21T18:44:21.626Z,9.23
2019-02-21T18:46:47.655Z,9.27
2019-02-21T18:49:13.623Z,8.73
2019-02-21T18:51:39.610Z,9.17
2019-02-21T18:54:05.586Z,9.40
2019-02-21T18:56:31.562Z,8.97
2019-02-21T18:58:57.524Z,9.60
2019-02-21T19:01:23.567Z,9.57
2019-02-21T19:03:49.772Z,9.63
2019-02-21T19:06:16.641Z,9.43
2019-02-21T19:08:42.586Z,9.60
2019-02-21T19:11:09.310Z,9.97
2019-02-21T19:13:36.040Z,9.73
2019-02-21T19:16:02.021Z,9.80
2019-02-21T19:18:28.017Z,10.63
2019-02-21T19:20:54.027Z,9.40
2019-02-21T19:23:20.759Z,9.60
2019-02-21T19:25:47.510Z,9.83
2019-02-21T19:28:14.249Z,9.87
2019-02-21T19:30:40.982Z,9.13
2019-02-21T19:33:07.743Z,10.30
2019-02-21T19:35:33.717Z,9.47
2019-02-21T19:38:09.944Z,10.10
2019-02-21T19:40:26.896Z,10.50
2019-02-21T19:42:52.878Z,10.50
2019-02-21T19:45:18.892Z,10.00
2019-02-21T19:47:44.915Z,9.87
2019-02-21T19:50:10.887Z,10.30
2019-02-21T19:52:36.845Z,9.47
2019-02-21T19:55:03.581Z,9.90
2019-02-21T19:57:30.371Z,9.90
2019-02-21T19:59:56.393Z,9.63
2019-02-21T20:02:22.358Z,9.90
2019-02-21T20:04:48.392Z,9.40
2019-02-21T20:07:15.108Z,9.70
2019-02-21T20:09:41.103Z,9.30
2019-02-21T20:12:07.124Z,11.37
2019-02-21T20:14:33.163Z,10.80
2019-02-21T20:16:59.149Z,9.20
2019-02-21T20:19:25.179Z,10.13
2019-02-21T20:21:51.209Z,10.03
2019-02-21T20:24:17.230Z,9.63
2019-02-21T20:26:43.200Z,9.97
2019-02-21T20:29:09.200Z,9.90
2019-02-21T20:31:35.192Z,9.97
2019-02-21T20:34:01.180Z,10.93
2019-02-21T20:36:27.217Z,10.47
2019-02-21T20:38:53.959Z,10.10
2019-02-21T20:41:20.689Z,10.10
2019-02-21T20:43:47.404Z,10.43
2019-02-21T20:46:13.388Z,9.57
2019-02-21T20:48:39.336Z,10.03
2019-02-21T20:51:05.356Z,11.07
2019-02-21T20:53:31.330Z,9.83
2019-02-21T20:55:58.057Z,11.10
2019-02-21T20:58:24.014Z,10.67
2019-02-21T21:00:50.002Z,10.87
2019-02-21T21:03:16.746Z,10.30
2019-02-21T21:05:42.728Z,10.63
2019-02-21T21:08:08.700Z,10.30
2019-02-21T21:10:35.436Z,10.63
2019-02-21T21:13:01.402Z,10.47
2019-02-21T21:15:27.398Z,9.40
2019-02-21T21:17:53.359Z,10.33
2019-02-21T21:20:19.442Z,9.50
2019-02-21T21:22:46.164Z,9.80
2019-02-21T21:25:12.882Z,9.57
2019-02-21T21:27:38.877Z,8.90
2019-02-21T21:30:04.818Z,10.07
2019-02-21T21:32:30.799Z,9.87
2019-02-21T21:34:56.757Z,10.00
2019-02-21T21:37:22.792Z,8.93
2019-02-21T21:39:48.802Z,9.47
2019-02-21T21:42:14.809Z,9.87
2019-02-21T21:44:41.586Z,10.00
2019-02-21T21:47:07.789Z,9.23
2019-02-21T21:49:34.065Z,9.37
2019-02-21T21:52:00.041Z,9.83
2019-02-21T21:54:25.981Z,9.57
2019-02-21T21:56:51.966Z,8.77
2019-02-21T21:59:17.947Z,9.23
2019-02-21T22:01:44.485Z,9.93
2019-02-21T22:04:10.476Z,9.50
2019-02-21T22:06:36.474Z,8.70
2019-02-21T22:09:04.987Z,9.50
2019-02-21T22:11:28.502Z,9.57
2019-02-21T22:13:55.198Z,9.27
2019-02-21T22:16:21.160Z,9.90
2019-02-21T22:18:47.150Z,8.90
2019-02-21T22:21:13.113Z,9.07
2019-02-21T22:23:39.114Z,8.90
2019-02-21T22:26:05.321Z,9.60
2019-02-21T22:28:31.466Z,8.63
2019-02-21T22:30:58.151Z,9.37
2019-02-21T22:33:23.480Z,9.60
2019-02-21T22:35:49.451Z,9.53
2019-02-21T22:38:16.164Z,9.60
2019-02-21T22:40:42.128Z,9.37
2019-02-21T22:43:08.120Z,8.10
2019-02-21T22:45:34.078Z,9.23
2019-02-21T22:48:00.039Z,9.23
2019-02-21T22:50:26.914Z,9.03
2019-02-21T22:52:52.043Z,9.97
2019-02-21T22:55:18.051Z,9.80
2019-02-21T22:57:44.754Z,9.67
2019-02-21T23:00:10.745Z,9.77
2019-02-21T23:02:36.692Z,10.23
2019-02-21T23:05:02.668Z,10.40
2019-02-21T23:07:28.640Z,10.50
2019-02-21T23:09:54.621Z,10.70
2019-02-21T23:12:20.600Z,10.03
2019-02-21T23:14:46.561Z,10.53
2019-02-21T23:17:12.528Z,10.30
2019-02-21T23:19:38.509Z,9.53
2019-02-21T23:22:04.473Z,11.60
2019-02-21T23:24:30.447Z,10.33
2019-02-21T23:26:57.149Z,10.70
2019-02-21T23:29:23.122Z,11.07
2019-02-21T23:31:49.104Z,11.93
2019-02-21T23:34:15.059Z,11.40
2019-02-21T23:36:41.063Z,11.53
2019-02-21T23:39:07.790Z,11.70
2019-02-21T23:41:33.773Z,11.97
2019-02-21T23:43:59.773Z,12.03
2019-02-21T23:46:25.780Z,12.33
2019-02-21T23:48:52.500Z,12.67
2019-02-21T23:51:18.485Z,11.83
2019-02-21T23:53:44.429Z,12.17
2019-02-21T23:56:10.424Z,11.87
2019-02-21T23:58:36.370Z,11.87
